createdAt,value
2022-10-10T00:01:05.856Z,14.26
2022-10-10T00:04:09.741Z,14.41
2022-10-10T00:07:12.228Z,14.41
2022-10-10T00:10:14.693Z,14.35
2022-10-10T00:13:17.239Z,14.65
2022-10-10T00:16:20.295Z,14.69
2022-10-10T00:19:24.089Z,14.73
2022-10-10T00:22:26.628Z,14.73
2022-10-10T00:25:29.159Z,14.75
2022-10-10T00:28:31.810Z,14.59
2022-10-10T00:31:34.294Z,14.52
2022-10-10T00:34:38.072Z,14.84
2022-10-10T00:37:40.520Z,14.51
2022-10-10T00:40:47.589Z,14.64
2022-10-10T00:44:07.667Z,14.71
2022-10-10T00:47:10.570Z,14.73
2022-10-10T00:50:14.445Z,14.94
2022-10-10T00:53:20.672Z,14.89
2022-10-10T00:56:26.990Z,14.80
2022-10-10T00:59:35.129Z,14.76
2022-10-10T01:02:37.817Z,14.68
2022-10-10T01:05:42.910Z,14.80
2022-10-10T01:08:45.515Z,14.65
2022-10-10T01:11:56.097Z,14.84
2022-10-10T01:15:06.300Z,14.92
2022-10-10T01:18:18.636Z,15.00
2022-10-10T01:21:32.826Z,15.04
2022-10-10T01:24:58.825Z,14.94
2022-10-10T01:28:04.088Z,14.85
2022-10-10T01:31:10.791Z,14.74
2022-10-10T01:34:22.938Z,14.86
2022-10-10T01:37:35.601Z,14.82
2022-10-10T01:40:45.260Z,14.64
2022-10-10T01:43:47.721Z,14.63
2022-10-10T01:46:51.502Z,14.65
2022-10-10T01:49:59.259Z,14.78
2022-10-10T01:53:09.948Z,14.85
2022-10-10T01:56:24.576Z,14.89
2022-10-10T01:59:40.344Z,14.85
2022-10-10T02:02:52.159Z,14.95
2022-10-10T02:05:57.683Z,15.02
2022-10-10T02:09:06.366Z,15.08
2022-10-10T02:12:11.950Z,15.07
2022-10-10T02:15:17.738Z,15.22
2022-10-10T02:18:28.242Z,15.38
2022-10-10T02:21:31.705Z,15.22
2022-10-10T02:24:34.203Z,15.27
2022-10-10T02:27:44.071Z,15.64
2022-10-10T02:30:50.154Z,15.58
2022-10-10T02:33:59.401Z,15.69
2022-10-10T02:37:04.864Z,15.43
2022-10-10T02:40:09.906Z,15.43
2022-10-10T02:43:14.856Z,15.48
2022-10-10T02:46:18.123Z,15.54
2022-10-10T02:49:26.804Z,15.66
2022-10-10T02:52:29.313Z,15.42
2022-10-10T02:55:31.827Z,15.44
2022-10-10T02:58:34.348Z,15.62
2022-10-10T03:01:36.826Z,15.74
2022-10-10T03:04:42.059Z,15.59
2022-10-10T03:07:44.520Z,15.18
2022-10-10T03:10:55.262Z,15.55
2022-10-10T03:13:57.703Z,15.31
2022-10-10T03:17:00.581Z,15.14
2022-10-10T03:20:05.425Z,15.34
2022-10-10T03:23:07.880Z,15.23
2022-10-10T03:26:10.557Z,15.06
2022-10-10T03:29:13.111Z,14.88
2022-10-10T03:32:15.580Z,15.02
2022-10-10T03:35:19.412Z,15.25
2022-10-10T03:38:21.859Z,14.98
2022-10-10T03:41:24.335Z,15.10
2022-10-10T03:44:26.790Z,15.05
2022-10-10T03:47:29.247Z,15.10
2022-10-10T03:50:33.062Z,15.44
2022-10-10T03:53:35.510Z,15.34
2022-10-10T03:56:37.984Z,15.14
2022-10-10T03:59:40.453Z,15.12
2022-10-10T04:02:42.963Z,15.14
2022-10-10T04:05:46.746Z,15.28
2022-10-10T04:08:49.338Z,15.20
2022-10-10T04:11:51.799Z,15.15
2022-10-10T04:14:54.262Z,15.08
2022-10-10T04:17:56.733Z,15.10
2022-10-10T04:21:02.826Z,15.25
2022-10-10T04:24:05.630Z,15.15
2022-10-10T04:27:08.093Z,15.01
2022-10-10T04:30:12.099Z,15.12
2022-10-10T04:33:14.573Z,15.02
2022-10-10T04:36:18.411Z,15.13
2022-10-10T04:39:21.045Z,15.07
2022-10-10T04:42:23.660Z,15.14
2022-10-10T04:45:26.657Z,15.12
2022-10-10T04:48:29.186Z,14.82
2022-10-10T04:51:32.987Z,14.90
2022-10-10T04:54:35.491Z,14.72
2022-10-10T04:57:37.968Z,14.71
2022-10-10T05:00:41.079Z,14.69
2022-10-10T05:03:43.969Z,14.59
2022-10-10T05:06:47.756Z,14.65
2022-10-10T05:09:50.456Z,14.61
2022-10-10T05:12:53.326Z,14.63
2022-10-10T05:15:56.103Z,14.91
2022-10-10T05:18:58.722Z,14.87
2022-10-10T05:22:02.567Z,15.06
2022-10-10T05:25:05.673Z,15.12
2022-10-10T05:28:08.203Z,15.07
2022-10-10T05:31:10.868Z,14.57
2022-10-10T05:34:14.403Z,14.83
2022-10-10T05:37:18.285Z,14.92
2022-10-10T05:40:20.799Z,14.57
2022-10-10T05:43:23.294Z,14.85
2022-10-10T05:46:27.446Z,15.02
2022-10-10T05:49:29.931Z,15.14
2022-10-10T05:52:35.225Z,15.39
2022-10-10T05:55:37.771Z,15.89
2022-10-10T05:58:40.234Z,17.21
2022-10-10T06:01:42.738Z,17.85
2022-10-10T06:04:45.323Z,17.84
2022-10-10T06:08:09.259Z,18.27
2022-10-10T06:11:12.144Z,18.55
2022-10-10T06:14:14.686Z,18.89
2022-10-10T06:17:17.393Z,19.38
2022-10-10T06:20:19.915Z,19.58
2022-10-10T06:23:23.762Z,19.40
2022-10-10T06:26:26.265Z,18.87
2022-10-10T06:29:29.019Z,18.78
2022-10-10T06:32:31.489Z,18.56
2022-10-10T06:35:34.092Z,19.21
2022-10-10T06:38:39.808Z,19.22
2022-10-10T06:41:42.260Z,18.94
2022-10-10T06:44:44.779Z,18.73
2022-10-10T06:47:47.233Z,18.32
2022-10-10T06:51:00.236Z,19.17
2022-10-10T06:54:04.085Z,19.40
2022-10-10T06:57:06.544Z,19.55
2022-10-10T07:00:09.719Z,19.84
2022-10-10T07:03:13.657Z,20.30
2022-10-10T07:06:18.001Z,20.52
2022-10-10T07:09:21.816Z,20.75
2022-10-10T07:12:24.272Z,20.54
2022-10-10T07:15:26.728Z,20.17
2022-10-10T07:18:29.662Z,20.14
2022-10-10T07:21:32.261Z,20.25
2022-10-10T07:24:37.000Z,20.82
2022-10-10T07:27:39.476Z,19.98
2022-10-10T07:30:43.814Z,19.31
2022-10-10T07:33:50.585Z,19.20
2022-10-10T07:36:53.571Z,19.39
2022-10-10T07:39:57.402Z,19.28
2022-10-10T07:43:00.376Z,19.14
2022-10-10T07:46:04.152Z,19.60
2022-10-10T07:49:08.615Z,20.73
2022-10-10T07:52:11.054Z,20.60
2022-10-10T07:55:14.860Z,21.04
2022-10-10T07:58:17.767Z,20.96
2022-10-10T08:01:20.482Z,21.47
2022-10-10T08:04:23.067Z,21.59
2022-10-10T08:07:25.681Z,20.90
2022-10-10T08:10:29.541Z,21.84
2022-10-10T08:13:32.041Z,21.74
2022-10-10T08:16:34.508Z,22.11
2022-10-10T08:19:37.064Z,22.13
2022-10-10T08:22:39.515Z,21.82
2022-10-10T08:25:43.309Z,22.45
2022-10-10T08:28:45.982Z,21.85
2022-10-10T08:31:48.512Z,22.82
2022-10-10T08:34:50.980Z,23.05
2022-10-10T08:37:53.832Z,23.29
2022-10-10T08:40:58.628Z,23.65
2022-10-10T08:44:04.524Z,23.96
2022-10-10T08:47:13.181Z,23.83
2022-10-10T08:50:19.742Z,24.30
2022-10-10T08:53:25.329Z,24.11
2022-10-10T08:56:32.234Z,24.21
2022-10-10T08:59:36.628Z,24.58
2022-10-10T09:02:57.771Z,24.57
2022-10-10T09:06:20.291Z,24.02
2022-10-10T09:09:31.003Z,23.06
2022-10-10T09:12:44.731Z,22.43
2022-10-10T09:15:55.309Z,22.29
2022-10-10T09:19:07.896Z,22.40
2022-10-10T09:22:15.546Z,22.68
2022-10-10T09:25:23.274Z,22.55
2022-10-10T09:28:38.815Z,22.98
2022-10-10T09:31:45.315Z,24.29
2022-10-10T09:34:52.452Z,24.60
2022-10-10T09:38:02.813Z,24.80
2022-10-10T09:41:12.464Z,23.78
2022-10-10T09:44:18.780Z,24.14
2022-10-10T09:47:22.187Z,24.45
2022-10-10T09:50:25.768Z,24.36
2022-10-10T09:53:28.264Z,25.12
2022-10-10T09:56:33.985Z,25.00
2022-10-10T09:59:40.655Z,25.18
2022-10-10T10:02:43.212Z,24.89
2022-10-10T10:05:49.957Z,24.47
2022-10-10T10:08:54.041Z,23.92
2022-10-10T10:11:59.312Z,23.73
2022-10-10T10:15:06.135Z,24.53
2022-10-10T10:18:13.051Z,24.45
2022-10-10T10:21:19.686Z,25.24
2022-10-10T10:24:24.437Z,25.57
2022-10-10T10:27:29.468Z,25.37
2022-10-10T10:30:35.039Z,25.20
2022-10-10T10:33:47.268Z,26.06
2022-10-10T10:36:57.689Z,26.25
2022-10-10T10:40:23.741Z,26.45
2022-10-10T10:43:41.580Z,26.22
2022-10-10T10:46:56.394Z,25.11
2022-10-10T10:50:17.625Z,24.94
2022-10-10T10:53:29.680Z,25.09
2022-10-10T10:56:37.003Z,24.82
2022-10-10T11:00:17.002Z,25.84
2022-10-10T11:05:17.384Z,25.57
2022-10-10T11:07:20.461Z,26.25
2022-10-10T11:10:31.456Z,26.02
2022-10-10T11:13:40.671Z,25.94
2022-10-10T11:16:49.199Z,26.12
2022-10-10T11:19:59.100Z,26.12
2022-10-10T11:23:09.040Z,25.72
2022-10-10T11:26:19.210Z,25.49
2022-10-10T11:29:25.542Z,25.39
2022-10-10T11:32:33.364Z,26.18
2022-10-10T11:35:41.679Z,26.30
2022-10-10T11:38:50.360Z,26.48
2022-10-10T11:41:57.259Z,25.94
2022-10-10T11:45:05.289Z,25.85
2022-10-10T11:48:20.645Z,25.54
2022-10-10T11:51:34.188Z,25.89
2022-10-10T11:54:43.849Z,25.93
2022-10-10T11:57:51.038Z,25.63
2022-10-10T12:00:57.871Z,25.40
2022-10-10T12:04:00.360Z,25.73
2022-10-10T12:07:07.032Z,25.62
2022-10-10T12:10:20.828Z,26.47
2022-10-10T12:13:31.080Z,26.63
2022-10-10T12:16:37.310Z,27.37
2022-10-10T12:19:39.860Z,27.12
2022-10-10T12:22:44.823Z,27.18
2022-10-10T12:25:47.975Z,26.63
2022-10-10T12:29:04.985Z,26.39
2022-10-10T12:32:28.140Z,27.16
2022-10-10T12:35:36.828Z,27.69
2022-10-10T12:38:42.515Z,27.42
2022-10-10T12:41:59.941Z,27.91
2022-10-10T12:45:02.914Z,27.02
2022-10-10T12:48:07.399Z,27.87
2022-10-10T12:51:22.040Z,28.36
2022-10-10T12:54:30.408Z,28.46
2022-10-10T12:57:35.674Z,28.35
2022-10-10T13:00:40.510Z,27.25
2022-10-10T13:03:46.672Z,26.91
2022-10-10T13:06:53.405Z,26.66
2022-10-10T13:10:06.576Z,27.31
2022-10-10T13:13:18.508Z,27.26
2022-10-10T13:16:23.398Z,27.49
2022-10-10T13:19:26.456Z,27.03
2022-10-10T13:22:31.139Z,23.53
2022-10-10T13:25:38.591Z,26.07
2022-10-10T13:28:47.147Z,26.09
2022-10-10T13:31:50.070Z,26.14
2022-10-10T13:34:55.220Z,24.95
2022-10-10T13:38:00.005Z,25.99
2022-10-10T13:41:05.962Z,26.45
2022-10-10T13:44:14.834Z,26.32
2022-10-10T13:47:52.912Z,26.86
2022-10-10T13:51:05.080Z,27.00
2022-10-10T13:54:44.557Z,26.83
2022-10-10T13:57:47.852Z,26.62
2022-10-10T14:00:56.989Z,26.68
2022-10-10T14:04:03.987Z,26.21
2022-10-10T14:07:12.451Z,27.25
2022-10-10T14:10:21.320Z,26.99
2022-10-10T14:13:25.411Z,26.72
2022-10-10T14:16:27.884Z,26.34
2022-10-10T14:19:31.171Z,26.75
2022-10-10T14:22:33.655Z,26.70
2022-10-10T14:25:39.259Z,27.07
2022-10-10T14:28:42.038Z,27.30
2022-10-10T14:31:45.413Z,25.57
2022-10-10T14:34:48.253Z,25.65
2022-10-10T14:37:50.784Z,25.77
2022-10-10T14:40:55.360Z,25.55
2022-10-10T14:43:58.060Z,25.67
2022-10-10T14:47:00.537Z,25.67
2022-10-10T14:50:03.084Z,25.80
2022-10-10T14:53:05.896Z,26.13
2022-10-10T14:56:12.082Z,26.47
2022-10-10T14:59:18.341Z,26.50
2022-10-10T15:02:45.447Z,25.89
2022-10-10T15:05:48.752Z,25.24
2022-10-10T15:08:51.227Z,24.75
2022-10-10T15:11:55.027Z,24.12
2022-10-10T15:14:57.554Z,24.51
2022-10-10T15:18:00.140Z,24.48
2022-10-10T15:21:02.815Z,24.27
2022-10-10T15:24:06.166Z,23.72
2022-10-10T15:27:10.179Z,23.53
2022-10-10T15:30:13.151Z,23.51
2022-10-10T15:33:15.809Z,23.61
2022-10-10T15:36:19.345Z,23.97
2022-10-10T15:39:21.957Z,23.89
2022-10-10T15:42:25.797Z,23.62
2022-10-10T15:45:54.411Z,23.52
2022-10-10T15:48:51.050Z,23.30
2022-10-10T15:51:53.525Z,23.32
2022-10-10T15:54:56.004Z,23.05
2022-10-10T15:57:59.847Z,22.92
2022-10-10T16:01:11.229Z,22.81
2022-10-10T16:04:13.803Z,22.77
2022-10-10T16:07:36.455Z,22.60
2022-10-10T16:10:39.520Z,21.88
2022-10-10T16:13:47.630Z,21.93
2022-10-10T16:16:50.091Z,21.85
2022-10-10T16:19:52.901Z,21.98
2022-10-10T16:22:55.414Z,21.74
2022-10-10T16:26:02.864Z,21.73
2022-10-10T16:29:08.607Z,21.64
2022-10-10T16:32:11.081Z,21.22
2022-10-10T16:35:13.577Z,21.21
2022-10-10T16:38:16.114Z,21.43
2022-10-10T16:41:35.603Z,21.39
2022-10-10T16:44:43.590Z,21.32
2022-10-10T16:47:46.075Z,21.17
2022-10-10T16:50:48.564Z,20.97
2022-10-10T16:53:51.373Z,20.76
2022-10-10T16:56:53.872Z,20.81
2022-10-10T16:59:57.659Z,20.71
2022-10-10T17:03:00.155Z,20.46
2022-10-10T17:06:04.111Z,20.53
2022-10-10T17:09:09.960Z,20.28
2022-10-10T17:12:12.535Z,20.12
2022-10-10T17:15:16.568Z,20.18
2022-10-10T17:18:19.492Z,20.04
2022-10-10T17:21:24.689Z,20.03
2022-10-10T17:24:27.241Z,19.77
2022-10-10T17:27:29.725Z,19.66
2022-10-10T17:30:33.517Z,19.69
2022-10-10T17:33:37.304Z,19.41
2022-10-10T17:36:39.781Z,19.11
2022-10-10T17:39:42.263Z,18.80
2022-10-10T17:42:44.736Z,18.80
2022-10-10T17:45:48.519Z,18.54
2022-10-10T17:48:51.020Z,18.25
2022-10-10T17:51:53.514Z,18.15
2022-10-10T17:54:55.980Z,18.05
2022-10-10T17:57:58.893Z,18.20
2022-10-10T18:01:04.613Z,18.35
2022-10-10T18:04:07.658Z,18.18
2022-10-10T18:07:10.235Z,18.09
2022-10-10T18:10:12.733Z,18.32
2022-10-10T18:13:15.268Z,18.32
2022-10-10T18:16:21.747Z,18.63
2022-10-10T18:19:24.390Z,18.44
2022-10-10T18:22:27.020Z,18.67
2022-10-10T18:25:29.511Z,19.08
2022-10-10T18:28:32.947Z,19.31
2022-10-10T18:31:38.206Z,19.19
2022-10-10T18:34:40.846Z,19.33
2022-10-10T18:37:43.329Z,19.49
2022-10-10T18:40:45.841Z,19.65
2022-10-10T18:43:49.188Z,19.57
2022-10-10T18:46:52.995Z,19.64
2022-10-10T18:49:55.467Z,19.55
2022-10-10T18:52:58.031Z,19.43
2022-10-10T18:56:01.407Z,19.67
2022-10-10T18:59:07.267Z,19.55
2022-10-10T19:02:12.052Z,19.52
2022-10-10T19:05:14.740Z,19.62
2022-10-10T19:08:17.220Z,19.87
2022-10-10T19:11:21.483Z,19.91
2022-10-10T19:14:24.083Z,19.70
2022-10-10T19:17:30.294Z,20.06
2022-10-10T19:20:33.472Z,20.03
2022-10-10T19:23:36.004Z,19.94
2022-10-10T19:26:38.483Z,19.85
2022-10-10T19:29:40.957Z,19.47
2022-10-10T19:32:44.765Z,19.82
2022-10-10T19:35:49.869Z,19.72
2022-10-10T19:38:55.583Z,19.74
2022-10-10T19:41:58.121Z,19.68
2022-10-10T19:45:00.589Z,19.73
2022-10-10T19:48:04.486Z,20.26
2022-10-10T19:51:09.009Z,20.49
2022-10-10T19:54:11.558Z,20.41
2022-10-10T19:57:14.032Z,20.06
2022-10-10T20:00:16.810Z,20.51
2022-10-10T20:03:20.672Z,20.52
2022-10-10T20:06:23.544Z,20.64
2022-10-10T20:09:27.756Z,20.41
2022-10-10T20:12:30.466Z,20.58
2022-10-10T20:15:32.945Z,20.19
2022-10-10T20:18:38.031Z,20.46
2022-10-10T20:21:40.536Z,20.35
2022-10-10T20:24:43.000Z,20.69
2022-10-10T20:27:45.527Z,20.76
2022-10-10T20:30:50.386Z,20.99
2022-10-10T20:33:57.037Z,21.18
2022-10-10T20:37:00.001Z,21.45
2022-10-10T20:40:02.554Z,21.00
2022-10-10T20:43:05.070Z,21.05
2022-10-10T20:46:09.767Z,21.08
2022-10-10T20:49:15.726Z,21.35
2022-10-10T20:52:18.199Z,20.81
2022-10-10T20:55:20.723Z,20.77
2022-10-10T20:58:23.233Z,20.70
2022-10-10T21:01:27.595Z,20.91
2022-10-10T21:04:31.499Z,20.91
2022-10-10T21:07:33.970Z,20.73
2022-10-10T21:10:39.109Z,21.05
2022-10-10T21:13:44.276Z,21.02
2022-10-10T21:16:47.686Z,20.92
2022-10-10T21:19:51.488Z,20.62
2022-10-10T21:22:55.663Z,20.61
2022-10-10T21:25:58.153Z,20.44
2022-10-10T21:29:01.670Z,20.42
2022-10-10T21:32:04.224Z,20.15
2022-10-10T21:35:09.664Z,20.43
2022-10-10T21:38:12.183Z,20.69
2022-10-10T21:41:19.096Z,20.95
2022-10-10T21:44:21.632Z,20.62
2022-10-10T21:47:24.218Z,20.23
2022-10-10T21:50:29.161Z,20.64
2022-10-10T21:53:32.171Z,20.52
2022-10-10T21:56:34.738Z,20.52
2022-10-10T21:59:37.227Z,20.55
2022-10-10T22:02:40.047Z,20.68
2022-10-10T22:05:44.801Z,21.20
2022-10-10T22:08:48.602Z,21.03
2022-10-10T22:11:51.163Z,20.97
2022-10-10T22:14:53.646Z,20.63
2022-10-10T22:17:57.004Z,20.81
2022-10-10T22:21:03.223Z,20.77
2022-10-10T22:24:08.423Z,20.59
2022-10-10T22:27:10.980Z,20.75
2022-10-10T22:30:14.657Z,20.77
2022-10-10T22:33:17.165Z,20.70
2022-10-10T22:36:21.004Z,21.14
2022-10-10T22:39:23.564Z,20.95
2022-10-10T22:42:26.053Z,20.51
2022-10-10T22:45:29.255Z,20.87
2022-10-10T22:48:31.852Z,20.24
2022-10-10T22:51:35.720Z,20.43
2022-10-10T22:54:38.210Z,20.51
2022-10-10T22:57:40.697Z,20.06
2022-10-10T23:00:43.220Z,19.93
2022-10-10T23:03:47.093Z,19.86
2022-10-10T23:06:51.317Z,19.48
2022-10-10T23:09:53.866Z,19.57
2022-10-10T23:12:56.351Z,18.70
2022-10-10T23:15:59.167Z,19.45
2022-10-10T23:19:01.708Z,19.25
2022-10-10T23:22:05.524Z,19.10
2022-10-10T23:25:08.445Z,18.94
2022-10-10T23:28:11.918Z,19.02
2022-10-10T23:31:14.946Z,18.61
2022-10-10T23:34:17.458Z,18.84
2022-10-10T23:37:21.266Z,18.95
2022-10-10T23:40:24.190Z,18.81
2022-10-10T23:43:26.800Z,18.80
2022-10-10T23:46:29.313Z,18.93
2022-10-10T23:49:31.843Z,19.51
2022-10-10T23:52:35.881Z,18.76
2022-10-10T23:55:38.438Z,18.23
2022-10-10T23:58:40.909Z,18.09
